sensor_id;sensor_type;location;lat;lon;timestamp;P1;durP1;ratioP1;P2;durP2;ratioP2
54263;SDS011;40178;53.042;6.406;2024-01-06T00:02:05;20.67;;;12.23;;
54263;SDS011;40178;53.042;6.406;2024-01-06T00:04:30;21.17;;;10.98;;
54263;SDS011;40178;53.042;6.406;2024-01-06T00:06:57;17.60;;;11.07;;
54263;SDS011;40178;53.042;6.406;2024-01-06T00:09:22;21.10;;;11.05;;
54263;SDS011;40178;53.042;6.406;2024-01-06T00:11:48;19.70;;;10.52;;
54263;SDS011;40178;53.042;6.406;2024-01-06T00:14:13;18.17;;;10.35;;
54263;SDS011;40178;53.042;6.406;2024-01-06T00:16:39;18.48;;;10.77;;
54263;SDS011;40178;53.042;6.406;2024-01-06T00:19:05;17.92;;;10.05;;
54263;SDS011;40178;53.042;6.406;2024-01-06T00:21:30;18.90;;;10.57;;
54263;SDS011;40178;53.042;6.406;2024-01-06T00:23:56;19.13;;;10.88;;
54263;SDS011;40178;53.042;6.406;2024-01-06T00:26:22;19.98;;;11.18;;
54263;SDS011;40178;53.042;6.406;2024-01-06T00:28:48;18.65;;;10.90;;
54263;SDS011;40178;53.042;6.406;2024-01-06T00:31:14;21.73;;;11.40;;
54263;SDS011;40178;53.042;6.406;2024-01-06T00:33:42;22.60;;;12.30;;
54263;SDS011;40178;53.042;6.406;2024-01-06T00:36:08;18.60;;;10.02;;
54263;SDS011;40178;53.042;6.406;2024-01-06T00:38:33;19.50;;;10.55;;
54263;SDS011;40178;53.042;6.406;2024-01-06T00:41:00;20.00;;;11.65;;
54263;SDS011;40178;53.042;6.406;2024-01-06T00:43:26;21.15;;;10.95;;
54263;SDS011;40178;53.042;6.406;2024-01-06T00:45:52;20.45;;;11.98;;
54263;SDS011;40178;53.042;6.406;2024-01-06T00:48:17;21.20;;;11.45;;
54263;SDS011;40178;53.042;6.406;2024-01-06T00:50:43;22.00;;;11.73;;
54263;SDS011;40178;53.042;6.406;2024-01-06T00:53:09;22.50;;;11.50;;
54263;SDS011;40178;53.042;6.406;2024-01-06T00:55:34;21.20;;;11.25;;
54263;SDS011;40178;53.042;6.406;2024-01-06T00:58:00;20.50;;;11.48;;
54263;SDS011;40178;53.042;6.406;2024-01-06T01:00:25;19.67;;;10.30;;
54263;SDS011;40178;53.042;6.406;2024-01-06T01:02:52;19.80;;;11.23;;
54263;SDS011;40178;53.042;6.406;2024-01-06T01:05:18;20.45;;;10.75;;
54263;SDS011;40178;53.042;6.406;2024-01-06T01:07:44;21.30;;;10.55;;
54263;SDS011;40178;53.042;6.406;2024-01-06T01:10:09;21.15;;;10.50;;
54263;SDS011;40178;53.042;6.406;2024-01-06T01:12:35;23.80;;;10.70;;
54263;SDS011;40178;53.042;6.406;2024-01-06T01:15:01;20.20;;;11.18;;
54263;SDS011;40178;53.042;6.406;2024-01-06T01:17:27;19.63;;;10.80;;
54263;SDS011;40178;53.042;6.406;2024-01-06T01:19:52;18.13;;;9.68;;
54263;SDS011;40178;53.042;6.406;2024-01-06T01:22:18;21.65;;;10.55;;
54263;SDS011;40178;53.042;6.406;2024-01-06T01:24:43;18.70;;;9.23;;
54263;SDS011;40178;53.042;6.406;2024-01-06T01:27:09;20.15;;;10.60;;
54263;SDS011;40178;53.042;6.406;2024-01-06T01:29:35;17.35;;;9.45;;
54263;SDS011;40178;53.042;6.406;2024-01-06T01:32:01;21.55;;;10.00;;
54263;SDS011;40178;53.042;6.406;2024-01-06T01:34:26;17.75;;;9.63;;
54263;SDS011;40178;53.042;6.406;2024-01-06T01:36:52;20.45;;;11.13;;
54263;SDS011;40178;53.042;6.406;2024-01-06T01:39:17;17.90;;;9.95;;
54263;SDS011;40178;53.042;6.406;2024-01-06T01:41:43;19.27;;;10.30;;
54263;SDS011;40178;53.042;6.406;2024-01-06T01:44:09;23.27;;;11.20;;
54263;SDS011;40178;53.042;6.406;2024-01-06T01:46:34;19.15;;;10.18;;
54263;SDS011;40178;53.042;6.406;2024-01-06T01:49:01;19.23;;;10.15;;
54263;SDS011;40178;53.042;6.406;2024-01-06T01:51:29;20.05;;;10.40;;
54263;SDS011;40178;53.042;6.406;2024-01-06T01:53:59;16.67;;;8.90;;
54263;SDS011;40178;53.042;6.406;2024-01-06T01:56:27;16.30;;;8.77;;
54263;SDS011;40178;53.042;6.406;2024-01-06T01:58:53;20.13;;;9.98;;
54263;SDS011;40178;53.042;6.406;2024-01-06T02:01:20;20.13;;;9.98;;
54263;SDS011;40178;53.042;6.406;2024-01-06T02:03:46;21.73;;;10.10;;
54263;SDS011;40178;53.042;6.406;2024-01-06T02:06:11;20.00;;;10.88;;
54263;SDS011;40178;53.042;6.406;2024-01-06T02:08:38;20.20;;;10.10;;
54263;SDS011;40178;53.042;6.406;2024-01-06T02:11:04;20.75;;;10.85;;
54263;SDS011;40178;53.042;6.406;2024-01-06T02:13:33;19.65;;;9.65;;
54263;SDS011;40178;53.042;6.406;2024-01-06T02:16:03;18.80;;;9.98;;
54263;SDS011;40178;53.042;6.406;2024-01-06T02:18:30;20.15;;;9.80;;
54263;SDS011;40178;53.042;6.406;2024-01-06T02:20:59;19.63;;;10.75;;
54263;SDS011;40178;53.042;6.406;2024-01-06T02:23:26;20.83;;;10.95;;
54263;SDS011;40178;53.042;6.406;2024-01-06T02:25:53;20.05;;;10.10;;
54263;SDS011;40178;53.042;6.406;2024-01-06T02:28:19;18.42;;;9.38;;
54263;SDS011;40178;53.042;6.406;2024-01-06T02:30:44;17.75;;;9.52;;
54263;SDS011;40178;53.042;6.406;2024-01-06T02:33:10;22.00;;;10.13;;
54263;SDS011;40178;53.042;6.406;2024-01-06T02:35:36;17.98;;;10.10;;
54263;SDS011;40178;53.042;6.406;2024-01-06T02:38:01;16.80;;;9.30;;
54263;SDS011;40178;53.042;6.406;2024-01-06T02:40:27;16.05;;;9.23;;
54263;SDS011;40178;53.042;6.406;2024-01-06T02:42:53;17.55;;;9.15;;
54263;SDS011;40178;53.042;6.406;2024-01-06T02:45:19;17.67;;;9.90;;
54263;SDS011;40178;53.042;6.406;2024-01-06T02:47:45;17.25;;;9.52;;
54263;SDS011;40178;53.042;6.406;2024-01-06T02:50:10;18.42;;;9.55;;
54263;SDS011;40178;53.042;6.406;2024-01-06T02:52:36;15.23;;;9.05;;
54263;SDS011;40178;53.042;6.406;2024-01-06T02:55:02;19.38;;;10.27;;
54263;SDS011;40178;53.042;6.406;2024-01-06T02:57:29;20.70;;;10.10;;
54263;SDS011;40178;53.042;6.406;2024-01-06T02:59:55;19.05;;;9.23;;
54263;SDS011;40178;53.042;6.406;2024-01-06T03:02:21;19.00;;;10.38;;
54263;SDS011;40178;53.042;6.406;2024-01-06T03:04:47;20.40;;;10.02;;
54263;SDS011;40178;53.042;6.406;2024-01-06T03:07:13;21.42;;;10.40;;
54263;SDS011;40178;53.042;6.406;2024-01-06T03:09:38;21.70;;;10.38;;
54263;SDS011;40178;53.042;6.406;2024-01-06T03:12:05;20.70;;;10.48;;
54263;SDS011;40178;53.042;6.406;2024-01-06T03:14:32;19.73;;;10.38;;
54263;SDS011;40178;53.042;6.406;2024-01-06T03:17:00;20.10;;;10.35;;
54263;SDS011;40178;53.042;6.406;2024-01-06T03:19:26;19.90;;;10.27;;
54263;SDS011;40178;53.042;6.406;2024-01-06T03:21:52;15.73;;;9.35;;
54263;SDS011;40178;53.042;6.406;2024-01-06T03:24:18;21.35;;;11.52;;
54263;SDS011;40178;53.042;6.406;2024-01-06T03:26:44;19.67;;;10.38;;
54263;SDS011;40178;53.042;6.406;2024-01-06T03:29:10;21.52;;;11.43;;
54263;SDS011;40178;53.042;6.406;2024-01-06T03:31:36;23.65;;;11.38;;
54263;SDS011;40178;53.042;6.406;2024-01-06T03:34:02;21.75;;;11.52;;
54263;SDS011;40178;53.042;6.406;2024-01-06T03:36:28;19.40;;;10.30;;
54263;SDS011;40178;53.042;6.406;2024-01-06T03:38:53;18.58;;;10.27;;
54263;SDS011;40178;53.042;6.406;2024-01-06T03:41:19;22.40;;;11.02;;
54263;SDS011;40178;53.042;6.406;2024-01-06T03:43:44;19.23;;;9.70;;
54263;SDS011;40178;53.042;6.406;2024-01-06T03:46:10;21.38;;;10.40;;
54263;SDS011;40178;53.042;6.406;2024-01-06T03:48:36;20.63;;;10.35;;
54263;SDS011;40178;53.042;6.406;2024-01-06T03:51:02;23.33;;;11.77;;
54263;SDS011;40178;53.042;6.406;2024-01-06T03:53:28;19.15;;;10.15;;
54263;SDS011;40178;53.042;6.406;2024-01-06T03:55:53;23.48;;;10.43;;
54263;SDS011;40178;53.042;6.406;2024-01-06T03:58:19;18.00;;;9.57;;
54263;SDS011;40178;53.042;6.406;2024-01-06T04:00:45;20.60;;;10.52;;
54263;SDS011;40178;53.042;6.406;2024-01-06T04:03:10;19.27;;;10.20;;
54263;SDS011;40178;53.042;6.406;2024-01-06T04:05:36;19.80;;;10.55;;
54263;SDS011;40178;53.042;6.406;2024-01-06T04:08:01;16.95;;;9.10;;
54263;SDS011;40178;53.042;6.406;2024-01-06T04:10:27;19.02;;;10.38;;
54263;SDS011;40178;53.042;6.406;2024-01-06T04:12:52;19.77;;;9.85;;
54263;SDS011;40178;53.042;6.406;2024-01-06T04:15:18;21.50;;;10.40;;
54263;SDS011;40178;53.042;6.406;2024-01-06T04:17:46;18.15;;;9.82;;
54263;SDS011;40178;53.042;6.406;2024-01-06T04:20:14;22.60;;;10.60;;
54263;SDS011;40178;53.042;6.406;2024-01-06T04:22:39;21.33;;;9.98;;
54263;SDS011;40178;53.042;6.406;2024-01-06T04:25:05;22.17;;;10.85;;
54263;SDS011;40178;53.042;6.406;2024-01-06T04:27:31;20.70;;;10.40;;
54263;SDS011;40178;53.042;6.406;2024-01-06T04:29:59;20.40;;;10.13;;
54263;SDS011;40178;53.042;6.406;2024-01-06T04:32:24;22.83;;;11.40;;
54263;SDS011;40178;53.042;6.406;2024-01-06T04:34:50;22.23;;;11.25;;
54263;SDS011;40178;53.042;6.406;2024-01-06T04:37:15;21.10;;;11.48;;
54263;SDS011;40178;53.042;6.406;2024-01-06T04:39:41;21.80;;;11.00;;
54263;SDS011;40178;53.042;6.406;2024-01-06T04:42:06;20.38;;;10.57;;
54263;SDS011;40178;53.042;6.406;2024-01-06T04:44:32;19.17;;;11.32;;
54263;SDS011;40178;53.042;6.406;2024-01-06T04:46:58;22.40;;;11.13;;
54263;SDS011;40178;53.042;6.406;2024-01-06T04:49:24;22.13;;;11.18;;
54263;SDS011;40178;53.042;6.406;2024-01-06T04:51:49;24.25;;;12.25;;
54263;SDS011;40178;53.042;6.406;2024-01-06T04:54:15;23.63;;;11.55;;
54263;SDS011;40178;53.042;6.406;2024-01-06T04:56:40;22.92;;;11.73;;
54263;SDS011;40178;53.042;6.406;2024-01-06T04:59:06;21.27;;;11.45;;
54263;SDS011;40178;53.042;6.406;2024-01-06T05:01:32;22.85;;;11.15;;
54263;SDS011;40178;53.042;6.406;2024-01-06T05:03:58;22.98;;;11.82;;
54263;SDS011;40178;53.042;6.406;2024-01-06T05:06:24;23.17;;;11.70;;
54263;SDS011;40178;53.042;6.406;2024-01-06T05:08:50;23.65;;;12.02;;
54263;SDS011;40178;53.042;6.406;2024-01-06T05:11:15;25.90;;;11.88;;
54263;SDS011;40178;53.042;6.406;2024-01-06T05:13:41;20.15;;;11.30;;
54263;SDS011;40178;53.042;6.406;2024-01-06T05:16:07;23.40;;;12.10;;
54263;SDS011;40178;53.042;6.406;2024-01-06T05:18:33;21.75;;;11.52;;
54263;SDS011;40178;53.042;6.406;2024-01-06T05:20:59;25.05;;;12.77;;
54263;SDS011;40178;53.042;6.406;2024-01-06T05:23:25;24.58;;;11.65;;
54263;SDS011;40178;53.042;6.406;2024-01-06T05:25:51;23.15;;;11.60;;
54263;SDS011;40178;53.042;6.406;2024-01-06T05:28:17;19.83;;;10.77;;
54263;SDS011;40178;53.042;6.406;2024-01-06T05:30:42;26.08;;;12.00;;
54263;SDS011;40178;53.042;6.406;2024-01-06T05:33:11;22.58;;;11.70;;
54263;SDS011;40178;53.042;6.406;2024-01-06T05:35:38;23.33;;;11.88;;
54263;SDS011;40178;53.042;6.406;2024-01-06T05:38:04;22.55;;;11.98;;
54263;SDS011;40178;53.042;6.406;2024-01-06T05:40:30;21.25;;;11.45;;
54263;SDS011;40178;53.042;6.406;2024-01-06T05:42:55;22.95;;;12.10;;
54263;SDS011;40178;53.042;6.406;2024-01-06T05:45:22;21.98;;;11.55;;
54263;SDS011;40178;53.042;6.406;2024-01-06T05:47:47;23.13;;;11.73;;
54263;SDS011;40178;53.042;6.406;2024-01-06T05:50:15;20.30;;;10.70;;
54263;SDS011;40178;53.042;6.406;2024-01-06T05:52:41;23.58;;;11.50;;
54263;SDS011;40178;53.042;6.406;2024-01-06T05:55:07;22.52;;;12.07;;
54263;SDS011;40178;53.042;6.406;2024-01-06T05:57:33;22.60;;;12.25;;
54263;SDS011;40178;53.042;6.406;2024-01-06T05:59:59;21.02;;;11.82;;
54263;SDS011;40178;53.042;6.406;2024-01-06T06:02:25;18.60;;;10.32;;
54263;SDS011;40178;53.042;6.406;2024-01-06T06:04:51;24.40;;;11.90;;
54263;SDS011;40178;53.042;6.406;2024-01-06T06:07:17;23.30;;;11.85;;
54263;SDS011;40178;53.042;6.406;2024-01-06T06:09:43;20.33;;;11.00;;
54263;SDS011;40178;53.042;6.406;2024-01-06T06:12:12;21.42;;;11.05;;
54263;SDS011;40178;53.042;6.406;2024-01-06T06:14:38;21.42;;;11.07;;
54263;SDS011;40178;53.042;6.406;2024-01-06T06:17:04;20.60;;;10.57;;
54263;SDS011;40178;53.042;6.406;2024-01-06T06:19:29;19.58;;;10.50;;
54263;SDS011;40178;53.042;6.406;2024-01-06T06:21:56;19.23;;;10.93;;
54263;SDS011;40178;53.042;6.406;2024-01-06T06:24:21;19.98;;;11.07;;
54263;SDS011;40178;53.042;6.406;2024-01-06T06:26:47;19.25;;;9.68;;
54263;SDS011;40178;53.042;6.406;2024-01-06T06:29:13;19.52;;;10.68;;
54263;SDS011;40178;53.042;6.406;2024-01-06T06:31:38;17.88;;;10.13;;
54263;SDS011;40178;53.042;6.406;2024-01-06T06:34:04;16.52;;;8.98;;
54263;SDS011;40178;53.042;6.406;2024-01-06T06:36:29;22.50;;;11.35;;
54263;SDS011;40178;53.042;6.406;2024-01-06T06:38:55;17.92;;;8.95;;
54263;SDS011;40178;53.042;6.406;2024-01-06T06:41:23;18.02;;;9.18;;
54263;SDS011;40178;53.042;6.406;2024-01-06T06:43:49;16.60;;;9.25;;
54263;SDS011;40178;53.042;6.406;2024-01-06T06:46:15;17.95;;;9.82;;
54263;SDS011;40178;53.042;6.406;2024-01-06T06:48:41;15.45;;;9.43;;
54263;SDS011;40178;53.042;6.406;2024-01-06T06:51:07;17.02;;;9.82;;
54263;SDS011;40178;53.042;6.406;2024-01-06T06:53:33;18.73;;;10.18;;
54263;SDS011;40178;53.042;6.406;2024-01-06T06:55:58;18.20;;;9.18;;
54263;SDS011;40178;53.042;6.406;2024-01-06T06:58:24;19.27;;;9.40;;
54263;SDS011;40178;53.042;6.406;2024-01-06T07:00:50;17.00;;;10.45;;
54263;SDS011;40178;53.042;6.406;2024-01-06T07:03:15;19.52;;;11.07;;
54263;SDS011;40178;53.042;6.406;2024-01-06T07:05:41;19.83;;;11.63;;
54263;SDS011;40178;53.042;6.406;2024-01-06T07:08:06;17.90;;;10.10;;
54263;SDS011;40178;53.042;6.406;2024-01-06T07:10:32;19.33;;;10.60;;
54263;SDS011;40178;53.042;6.406;2024-01-06T07:12:58;17.50;;;9.20;;
54263;SDS011;40178;53.042;6.406;2024-01-06T07:15:23;19.40;;;10.27;;
54263;SDS011;40178;53.042;6.406;2024-01-06T07:17:49;21.45;;;11.63;;
54263;SDS011;40178;53.042;6.406;2024-01-06T07:20:15;19.23;;;9.90;;
54263;SDS011;40178;53.042;6.406;2024-01-06T07:22:40;18.27;;;10.15;;
54263;SDS011;40178;53.042;6.406;2024-01-06T07:25:06;20.83;;;10.45;;
54263;SDS011;40178;53.042;6.406;2024-01-06T07:27:32;19.77;;;10.77;;
54263;SDS011;40178;53.042;6.406;2024-01-06T07:29:58;19.23;;;11.00;;
54263;SDS011;40178;53.042;6.406;2024-01-06T07:32:24;18.48;;;10.80;;
54263;SDS011;40178;53.042;6.406;2024-01-06T07:34:50;20.58;;;12.23;;
54263;SDS011;40178;53.042;6.406;2024-01-06T07:37:16;18.30;;;10.93;;
54263;SDS011;40178;53.042;6.406;2024-01-06T07:39:41;19.65;;;10.32;;
54263;SDS011;40178;53.042;6.406;2024-01-06T07:42:08;19.77;;;11.38;;
54263;SDS011;40178;53.042;6.406;2024-01-06T07:44:33;20.30;;;10.88;;
54263;SDS011;40178;53.042;6.406;2024-01-06T07:46:59;20.80;;;11.32;;
54263;SDS011;40178;53.042;6.406;2024-01-06T07:49:27;17.58;;;10.98;;
54263;SDS011;40178;53.042;6.406;2024-01-06T07:51:52;21.02;;;10.90;;
54263;SDS011;40178;53.042;6.406;2024-01-06T07:54:18;20.08;;;11.10;;
54263;SDS011;40178;53.042;6.406;2024-01-06T07:56:44;23.17;;;11.15;;
54263;SDS011;40178;53.042;6.406;2024-01-06T07:59:10;21.55;;;12.07;;
54263;SDS011;40178;53.042;6.406;2024-01-06T08:01:36;23.33;;;12.10;;
54263;SDS011;40178;53.042;6.406;2024-01-06T08:04:02;21.27;;;11.75;;
54263;SDS011;40178;53.042;6.406;2024-01-06T08:06:27;23.67;;;12.25;;
54263;SDS011;40178;53.042;6.406;2024-01-06T08:08:53;24.38;;;12.38;;
54263;SDS011;40178;53.042;6.406;2024-01-06T08:11:20;21.90;;;12.18;;
54263;SDS011;40178;53.042;6.406;2024-01-06T08:13:46;23.38;;;13.63;;
54263;SDS011;40178;53.042;6.406;2024-01-06T08:16:12;21.85;;;12.30;;
54263;SDS011;40178;53.042;6.406;2024-01-06T08:18:37;23.08;;;12.40;;
54263;SDS011;40178;53.042;6.406;2024-01-06T08:21:03;21.15;;;13.02;;
54263;SDS011;40178;53.042;6.406;2024-01-06T08:23:29;22.98;;;12.40;;
54263;SDS011;40178;53.042;6.406;2024-01-06T08:25:54;23.48;;;12.15;;
54263;SDS011;40178;53.042;6.406;2024-01-06T08:28:20;26.08;;;14.48;;
54263;SDS011;40178;53.042;6.406;2024-01-06T08:30:48;26.65;;;14.60;;
54263;SDS011;40178;53.042;6.406;2024-01-06T08:33:14;23.42;;;13.52;;
54263;SDS011;40178;53.042;6.406;2024-01-06T08:35:39;26.75;;;14.73;;
54263;SDS011;40178;53.042;6.406;2024-01-06T08:38:08;26.83;;;14.27;;
54263;SDS011;40178;53.042;6.406;2024-01-06T08:40:34;29.23;;;14.88;;
54263;SDS011;40178;53.042;6.406;2024-01-06T08:43:01;27.70;;;14.55;;
54263;SDS011;40178;53.042;6.406;2024-01-06T08:45:27;25.23;;;14.45;;
54263;SDS011;40178;53.042;6.406;2024-01-06T08:47:53;24.50;;;14.43;;
54263;SDS011;40178;53.042;6.406;2024-01-06T08:50:19;27.13;;;14.10;;
54263;SDS011;40178;53.042;6.406;2024-01-06T08:52:44;25.98;;;14.05;;
54263;SDS011;40178;53.042;6.406;2024-01-06T08:55:10;27.02;;;14.48;;
54263;SDS011;40178;53.042;6.406;2024-01-06T08:57:36;26.90;;;13.77;;
54263;SDS011;40178;53.042;6.406;2024-01-06T09:00:02;26.65;;;15.30;;
54263;SDS011;40178;53.042;6.406;2024-01-06T09:02:29;24.92;;;14.15;;
54263;SDS011;40178;53.042;6.406;2024-01-06T09:04:54;24.77;;;13.93;;
54263;SDS011;40178;53.042;6.406;2024-01-06T09:07:20;27.30;;;15.30;;
54263;SDS011;40178;53.042;6.406;2024-01-06T09:09:46;25.88;;;13.55;;
54263;SDS011;40178;53.042;6.406;2024-01-06T09:12:11;24.88;;;13.88;;
54263;SDS011;40178;53.042;6.406;2024-01-06T09:14:37;25.52;;;14.57;;
54263;SDS011;40178;53.042;6.406;2024-01-06T09:17:02;26.35;;;14.65;;
54263;SDS011;40178;53.042;6.406;2024-01-06T09:19:29;23.80;;;13.43;;
54263;SDS011;40178;53.042;6.406;2024-01-06T09:21:55;26.60;;;14.50;;
54263;SDS011;40178;53.042;6.406;2024-01-06T09:24:21;28.27;;;14.30;;
54263;SDS011;40178;53.042;6.406;2024-01-06T09:26:47;28.23;;;13.80;;
54263;SDS011;40178;53.042;6.406;2024-01-06T09:29:14;22.40;;;13.52;;
54263;SDS011;40178;53.042;6.406;2024-01-06T09:31:41;26.92;;;14.70;;
54263;SDS011;40178;53.042;6.406;2024-01-06T09:34:08;25.15;;;14.40;;
54263;SDS011;40178;53.042;6.406;2024-01-06T09:36:35;24.58;;;13.48;;
54263;SDS011;40178;53.042;6.406;2024-01-06T09:39:00;25.90;;;13.15;;
54263;SDS011;40178;53.042;6.406;2024-01-06T09:41:26;26.45;;;14.40;;
54263;SDS011;40178;53.042;6.406;2024-01-06T09:43:52;27.50;;;14.70;;
54263;SDS011;40178;53.042;6.406;2024-01-06T09:46:21;26.05;;;14.07;;
54263;SDS011;40178;53.042;6.406;2024-01-06T09:48:53;23.33;;;12.63;;
54263;SDS011;40178;53.042;6.406;2024-01-06T09:51:19;23.38;;;13.45;;
54263;SDS011;40178;53.042;6.406;2024-01-06T09:53:49;24.35;;;13.63;;
54263;SDS011;40178;53.042;6.406;2024-01-06T09:56:18;23.33;;;12.77;;
54263;SDS011;40178;53.042;6.406;2024-01-06T09:58:44;22.05;;;13.20;;
54263;SDS011;40178;53.042;6.406;2024-01-06T10:01:10;24.35;;;13.52;;
54263;SDS011;40178;53.042;6.406;2024-01-06T10:03:37;24.27;;;12.98;;
54263;SDS011;40178;53.042;6.406;2024-01-06T10:06:03;22.38;;;12.57;;
54263;SDS011;40178;53.042;6.406;2024-01-06T10:08:29;22.13;;;12.82;;
54263;SDS011;40178;53.042;6.406;2024-01-06T10:10:58;24.42;;;13.05;;
54263;SDS011;40178;53.042;6.406;2024-01-06T10:13:24;24.58;;;13.73;;
54263;SDS011;40178;53.042;6.406;2024-01-06T10:15:50;22.75;;;13.25;;
54263;SDS011;40178;53.042;6.406;2024-01-06T10:18:16;21.48;;;12.27;;
54263;SDS011;40178;53.042;6.406;2024-01-06T10:20:44;23.00;;;13.23;;
54263;SDS011;40178;53.042;6.406;2024-01-06T10:23:10;21.35;;;13.10;;
54263;SDS011;40178;53.042;6.406;2024-01-06T10:25:36;22.98;;;12.70;;
54263;SDS011;40178;53.042;6.406;2024-01-06T10:28:02;23.85;;;12.75;;
54263;SDS011;40178;53.042;6.406;2024-01-06T10:30:28;23.38;;;12.68;;
54263;SDS011;40178;53.042;6.406;2024-01-06T10:32:54;21.25;;;12.48;;
54263;SDS011;40178;53.042;6.406;2024-01-06T10:35:19;23.13;;;12.73;;
54263;SDS011;40178;53.042;6.406;2024-01-06T10:37:45;22.80;;;12.63;;
54263;SDS011;40178;53.042;6.406;2024-01-06T10:42:40;27.83;;;13.40;;
54263;SDS011;40178;53.042;6.406;2024-01-06T10:45:07;22.77;;;12.82;;
54263;SDS011;40178;53.042;6.406;2024-01-06T10:47:35;20.35;;;12.35;;
54263;SDS011;40178;53.042;6.406;2024-01-06T10:50:05;22.17;;;13.48;;
54263;SDS011;40178;53.042;6.406;2024-01-06T10:52:32;21.90;;;12.45;;
54263;SDS011;40178;53.042;6.406;2024-01-06T10:55:00;22.83;;;13.52;;
54263;SDS011;40178;53.042;6.406;2024-01-06T10:57:27;24.75;;;12.70;;
54263;SDS011;40178;53.042;6.406;2024-01-06T10:59:57;22.55;;;13.00;;
54263;SDS011;40178;53.042;6.406;2024-01-06T11:02:24;20.98;;;13.07;;
54263;SDS011;40178;53.042;6.406;2024-01-06T11:04:51;24.23;;;13.50;;
54263;SDS011;40178;53.042;6.406;2024-01-06T11:07:18;21.67;;;13.18;;
54263;SDS011;40178;53.042;6.406;2024-01-06T11:10:09;22.05;;;12.05;;
54263;SDS011;40178;53.042;6.406;2024-01-06T11:12:35;21.95;;;12.15;;
54263;SDS011;40178;53.042;6.406;2024-01-06T11:15:01;20.20;;;12.68;;
54263;SDS011;40178;53.042;6.406;2024-01-06T11:20:20;20.85;;;11.90;;
54263;SDS011;40178;53.042;6.406;2024-01-06T11:22:52;18.63;;;11.60;;
54263;SDS011;40178;53.042;6.406;2024-01-06T11:25:19;16.80;;;10.48;;
54263;SDS011;40178;53.042;6.406;2024-01-06T11:27:49;17.05;;;9.27;;
54263;SDS011;40178;53.042;6.406;2024-01-06T11:30:22;15.45;;;9.23;;
54263;SDS011;40178;53.042;6.406;2024-01-06T11:35:18;16.33;;;8.75;;
54263;SDS011;40178;53.042;6.406;2024-01-06T11:42:47;14.50;;;7.78;;
54263;SDS011;40178;53.042;6.406;2024-01-06T11:45:13;16.67;;;9.55;;
54263;SDS011;40178;53.042;6.406;2024-01-06T11:47:40;14.02;;;8.50;;
54263;SDS011;40178;53.042;6.406;2024-01-06T11:50:12;16.23;;;9.20;;
54263;SDS011;40178;53.042;6.406;2024-01-06T11:52:37;16.15;;;8.95;;
54263;SDS011;40178;53.042;6.406;2024-01-06T11:55:04;13.98;;;8.90;;
54263;SDS011;40178;53.042;6.406;2024-01-06T11:57:33;14.45;;;8.40;;
54263;SDS011;40178;53.042;6.406;2024-01-06T11:59:59;13.98;;;7.78;;
54263;SDS011;40178;53.042;6.406;2024-01-06T12:02:24;13.05;;;7.93;;
54263;SDS011;40178;53.042;6.406;2024-01-06T12:04:51;14.35;;;8.15;;
54263;SDS011;40178;53.042;6.406;2024-01-06T12:07:18;14.50;;;8.25;;
54263;SDS011;40178;53.042;6.406;2024-01-06T12:09:48;11.93;;;6.95;;
54263;SDS011;40178;53.042;6.406;2024-01-06T12:12:17;14.65;;;7.70;;
54263;SDS011;40178;53.042;6.406;2024-01-06T12:14:43;13.30;;;7.13;;
54263;SDS011;40178;53.042;6.406;2024-01-06T12:17:11;12.77;;;7.50;;
54263;SDS011;40178;53.042;6.406;2024-01-06T12:19:38;14.70;;;8.38;;
54263;SDS011;40178;53.042;6.406;2024-01-06T12:22:06;14.60;;;8.95;;
54263;SDS011;40178;53.042;6.406;2024-01-06T12:24:32;13.52;;;8.20;;
54263;SDS011;40178;53.042;6.406;2024-01-06T12:26:58;14.45;;;8.30;;
54263;SDS011;40178;53.042;6.406;2024-01-06T12:29:27;14.98;;;8.35;;
54263;SDS011;40178;53.042;6.406;2024-01-06T12:31:58;14.48;;;8.07;;
54263;SDS011;40178;53.042;6.406;2024-01-06T12:34:24;12.43;;;7.50;;
54263;SDS011;40178;53.042;6.406;2024-01-06T12:36:52;13.57;;;8.05;;
54263;SDS011;40178;53.042;6.406;2024-01-06T12:39:20;13.32;;;7.40;;
54263;SDS011;40178;53.042;6.406;2024-01-06T12:41:46;13.05;;;7.85;;
54263;SDS011;40178;53.042;6.406;2024-01-06T12:44:11;13.13;;;7.28;;
54263;SDS011;40178;53.042;6.406;2024-01-06T12:46:38;14.48;;;8.27;;
54263;SDS011;40178;53.042;6.406;2024-01-06T12:49:03;13.07;;;7.38;;
54263;SDS011;40178;53.042;6.406;2024-01-06T12:51:29;13.40;;;7.57;;
54263;SDS011;40178;53.042;6.406;2024-01-06T12:53:55;13.05;;;7.50;;
54263;SDS011;40178;53.042;6.406;2024-01-06T12:56:20;13.25;;;7.15;;
54263;SDS011;40178;53.042;6.406;2024-01-06T12:58:46;13.20;;;8.05;;
54263;SDS011;40178;53.042;6.406;2024-01-06T13:01:12;13.70;;;7.20;;
54263;SDS011;40178;53.042;6.406;2024-01-06T13:03:37;14.98;;;8.68;;
54263;SDS011;40178;53.042;6.406;2024-01-06T13:06:04;11.18;;;7.38;;
54263;SDS011;40178;53.042;6.406;2024-01-06T13:08:29;14.95;;;8.40;;
54263;SDS011;40178;53.042;6.406;2024-01-06T13:10:55;12.70;;;7.32;;
54263;SDS011;40178;53.042;6.406;2024-01-06T13:13:21;13.60;;;7.55;;
54263;SDS011;40178;53.042;6.406;2024-01-06T13:15:47;13.30;;;7.57;;
54263;SDS011;40178;53.042;6.406;2024-01-06T13:18:13;13.43;;;7.22;;
54263;SDS011;40178;53.042;6.406;2024-01-06T13:20:39;13.48;;;7.72;;
54263;SDS011;40178;53.042;6.406;2024-01-06T13:23:07;13.35;;;8.32;;
54263;SDS011;40178;53.042;6.406;2024-01-06T13:25:33;11.57;;;7.05;;
54263;SDS011;40178;53.042;6.406;2024-01-06T13:28:00;11.85;;;7.22;;
54263;SDS011;40178;53.042;6.406;2024-01-06T13:30:25;14.88;;;7.57;;
54263;SDS011;40178;53.042;6.406;2024-01-06T13:32:54;14.38;;;7.88;;
54263;SDS011;40178;53.042;6.406;2024-01-06T13:35:20;13.25;;;7.85;;
54263;SDS011;40178;53.042;6.406;2024-01-06T13:37:47;12.68;;;7.95;;
54263;SDS011;40178;53.042;6.406;2024-01-06T13:40:16;13.60;;;7.35;;
54263;SDS011;40178;53.042;6.406;2024-01-06T13:42:45;14.02;;;7.90;;
54263;SDS011;40178;53.042;6.406;2024-01-06T13:45:15;13.25;;;7.50;;
54263;SDS011;40178;53.042;6.406;2024-01-06T13:47:41;12.43;;;7.03;;
54263;SDS011;40178;53.042;6.406;2024-01-06T13:50:09;12.32;;;6.80;;
54263;SDS011;40178;53.042;6.406;2024-01-06T13:52:41;13.48;;;7.95;;
54263;SDS011;40178;53.042;6.406;2024-01-06T13:55:07;13.10;;;7.70;;
54263;SDS011;40178;53.042;6.406;2024-01-06T13:57:33;11.43;;;7.28;;
54263;SDS011;40178;53.042;6.406;2024-01-06T13:59:59;13.25;;;7.30;;
54263;SDS011;40178;53.042;6.406;2024-01-06T14:02:25;15.52;;;8.07;;
54263;SDS011;40178;53.042;6.406;2024-01-06T14:04:51;13.82;;;7.95;;
54263;SDS011;40178;53.042;6.406;2024-01-06T14:07:17;11.93;;;7.32;;
54263;SDS011;40178;53.042;6.406;2024-01-06T14:09:44;14.20;;;8.07;;
54263;SDS011;40178;53.042;6.406;2024-01-06T14:12:11;14.52;;;7.90;;
54263;SDS011;40178;53.042;6.406;2024-01-06T14:14:36;13.27;;;7.65;;
54263;SDS011;40178;53.042;6.406;2024-01-06T14:17:02;13.63;;;8.00;;
54263;SDS011;40178;53.042;6.406;2024-01-06T14:19:28;13.18;;;8.13;;
54263;SDS011;40178;53.042;6.406;2024-01-06T14:21:54;13.07;;;7.75;;
54263;SDS011;40178;53.042;6.406;2024-01-06T14:24:19;11.98;;;7.22;;
54263;SDS011;40178;53.042;6.406;2024-01-06T14:26:50;12.27;;;7.40;;
54263;SDS011;40178;53.042;6.406;2024-01-06T14:29:16;12.68;;;7.30;;
54263;SDS011;40178;53.042;6.406;2024-01-06T14:31:42;13.23;;;8.23;;
54263;SDS011;40178;53.042;6.406;2024-01-06T14:34:08;12.40;;;7.07;;